Slotergracht — PDBP — position and weather

sailwx.info

Track history (hours):
 
Tides and Currents Weather Stations Pressure Air Temp Water Temp Dewpoint Dewpoint Depression Visibility Wind Speed Wind Dir Waves Ship Positions

Slotergracht

Last reported at 2014-Jul-18 11:32 UTC. Time now 2014-Jul-25 01:39 UTC.
Position N 59°37' E 023°18'.

Length 168 m; beam 25 m.

Type: Cargo ship. MMSI: 246456000.

Date/timePositionNaut miles runAvg speedWind from/ knotsBaromVisibWave heightAir tempDewpointWater temp
2014-Jul-18 11:32N 59°37' E 023°18'1312.7
2014-Jul-18 10:33N 59°41' E 023°42'1312.6
2014-Jul-18 09:31N 59°44' E 024°06'4413.1
2014-Jul-18 06:09N 59°55' E 025°32'813.3
2014-Jul-18 05:33N 59°56' E 025°47'2613.1
2014-Jul-18 03:33N 60°01' E 026°39'1812.5
2014-Jul-18 02:08N 60°03' E 027°14'9011.6
2014-Jul-17 18:22N 59°53' E 030°13'0 0.6
2014-Jul-17 17:33N 59°54' E 030°14'0 0.0
2014-Jul-17 16:33N 59°54' E 030°14'0 0.0
2014-Jul-17 15:33N 59°54' E 030°14'0 0.0
2014-Jul-17 14:33N 59°54' E 030°14'0 0.0
2014-Jul-17 13:33N 59°54' E 030°14'0 0.0
2014-Jul-17 12:33N 59°54' E 030°14'0 0.0
2014-Jul-17 07:30N 59°54' E 030°14'0 0.0
2014-Jul-17 06:33N 59°54' E 030°14'0 0.0
2014-Jul-17 05:30N 59°54' E 030°14'0 0.0
2014-Jul-17 04:33N 59°54' E 030°14'0 0.0
2014-Jul-17 03:33N 59°54' E 030°14'4 3.9
2014-Jul-17 02:33N 59°54' E 030°06'92 4.2
2014-Jul-16 04:26N 59°58' E 027°03'1315.0
2014-Jul-16 03:34N 59°58' E 026°36'1715.4
2014-Jul-16 02:28N 59°54' E 026°04'1515.3
2014-Jul-16 01:31N 59°51' E 025°36'  
2014-Jul-13 12:19N 60°01' E 023°56'5 7.0
2014-Jul-13 11:33N 59°58' E 024°05'9 9.1
2014-Jul-13 10:32N 59°49' E 024°05'1312.8
2014-Jul-13 09:33N 59°38' E 023°51'1716.9
2014-Jul-13 08:33N 59°33' E 023°19'  
2014-Jul-08 14:34N 59°39' E 023°25'1514.5
2014-Jul-08 13:34N 59°43' E 023°52'1514.5
2014-Jul-08 12:32N 59°47' E 024°21'  
Track history (hours):
 
Tides and Currents Weather Stations Pressure Air Temp Water Temp Dewpoint Dewpoint Depression Visibility Wind Speed Wind Dir Waves Ship Positions

Slotergracht

Last reported at 2014-Jul-18 11:32 UTC. Time now 2014-Jul-25 01:39 UTC.
Position N 59°37' E 023°18'.

Length 168 m; beam 25 m.

Type: Cargo ship. MMSI: 246456000.

Date/timePositionNaut miles runAvg speedWind from/ knotsBaromVisibWave heightAir tempDewpointWater temp
2014-Jul-18 11:32N 59°37' E 023°18'1312.7
2014-Jul-18 10:33N 59°41' E 023°42'1312.6
2014-Jul-18 09:31N 59°44' E 024°06'4413.1
2014-Jul-18 06:09N 59°55' E 025°32'813.3
2014-Jul-18 05:33N 59°56' E 025°47'2613.1
2014-Jul-18 03:33N 60°01' E 026°39'1812.5
2014-Jul-18 02:08N 60°03' E 027°14'9011.6
2014-Jul-17 18:22N 59°53' E 030°13'0 0.6
2014-Jul-17 17:33N 59°54' E 030°14'0 0.0
2014-Jul-17 16:33N 59°54' E 030°14'0 0.0
2014-Jul-17 15:33N 59°54' E 030°14'0 0.0
2014-Jul-17 14:33N 59°54' E 030°14'0 0.0
2014-Jul-17 13:33N 59°54' E 030°14'0 0.0
2014-Jul-17 12:33N 59°54' E 030°14'0 0.0
2014-Jul-17 07:30N 59°54' E 030°14'0 0.0
2014-Jul-17 06:33N 59°54' E 030°14'0 0.0
2014-Jul-17 05:30N 59°54' E 030°14'0 0.0
2014-Jul-17 04:33N 59°54' E 030°14'0 0.0
2014-Jul-17 03:33N 59°54' E 030°14'4 3.9
2014-Jul-17 02:33N 59°54' E 030°06'92 4.2
2014-Jul-16 04:26N 59°58' E 027°03'1315.0
2014-Jul-16 03:34N 59°58' E 026°36'1715.4
2014-Jul-16 02:28N 59°54' E 026°04'1515.3
2014-Jul-16 01:31N 59°51' E 025°36'  
2014-Jul-13 12:19N 60°01' E 023°56'5 7.0
2014-Jul-13 11:33N 59°58' E 024°05'9 9.1
2014-Jul-13 10:32N 59°49' E 024°05'1312.8
2014-Jul-13 09:33N 59°38' E 023°51'1716.9
2014-Jul-13 08:33N 59°33' E 023°19'  
2014-Jul-08 14:34N 59°39' E 023°25'1514.5
2014-Jul-08 13:34N 59°43' E 023°52'1514.5
2014-Jul-08 12:32N 59°47' E 024°21'  

Dump ship's entire track history